createdAt,value
2023-01-02T00:01:36.037Z,101146.59
2023-01-02T00:04:04.017Z,101147.25
2023-01-02T00:06:35.690Z,101143.38
2023-01-02T00:09:04.165Z,101132.59
2023-01-02T00:11:32.265Z,101129.50
2023-01-02T00:14:00.526Z,101118.56
2023-01-02T00:16:28.752Z,101117.72
2023-01-02T00:18:58.171Z,101109.94
2023-01-02T00:21:26.128Z,101100.31
2023-01-02T00:23:54.077Z,101098.63
2023-01-02T00:26:22.049Z,101095.41
2023-01-02T00:28:50.041Z,101098.47
2023-01-02T00:31:18.213Z,101098.63
2023-01-02T00:33:46.293Z,101091.53
2023-01-02T00:36:15.991Z,101096.13
2023-01-02T00:38:43.953Z,101085.81
2023-01-02T00:41:12.041Z,101086.47
2023-01-02T00:43:40.669Z,101097.44
2023-01-02T00:46:12.015Z,101094.75
2023-01-02T00:48:40.818Z,101102.03
2023-01-02T00:51:09.339Z,101102.50
2023-01-02T00:53:38.902Z,101089.00
2023-01-02T00:56:07.427Z,101093.03
2023-01-02T00:58:36.060Z,101092.38
2023-01-02T01:01:04.384Z,101090.69
2023-01-02T01:03:32.505Z,101096.63
2023-01-02T01:06:00.493Z,101084.81
2023-01-02T01:08:28.505Z,101088.69
2023-01-02T01:10:57.930Z,101094.25
2023-01-02T01:13:25.937Z,101088.53
2023-01-02T01:15:53.941Z,101082.78
2023-01-02T01:18:21.911Z,101080.09
2023-01-02T01:20:50.214Z,101072.81
2023-01-02T01:23:18.232Z,101067.75
2023-01-02T01:25:46.144Z,101065.91
2023-01-02T01:28:15.540Z,101062.19
2023-01-02T01:30:43.534Z,101052.41
2023-01-02T01:33:11.619Z,101052.06
2023-01-02T01:35:39.579Z,101043.81
2023-01-02T01:38:07.550Z,101050.72
2023-01-02T01:40:39.520Z,101048.03
2023-01-02T01:43:16.137Z,101044.81
2023-01-02T01:45:45.387Z,101045.50
2023-01-02T01:48:17.775Z,101042.97
2023-01-02T01:50:46.590Z,101040.59
2023-01-02T01:53:19.960Z,101038.91
2023-01-02T01:55:53.358Z,101032.50
2023-01-02T01:58:29.835Z,101031.13
2023-01-02T02:00:58.433Z,101028.75
2023-01-02T02:03:31.176Z,101023.72
2023-01-02T02:06:01.110Z,101013.25
2023-01-02T02:08:38.653Z,101010.19
2023-01-02T02:11:07.484Z,101005.09
2023-01-02T02:13:37.153Z,100998.53
2023-01-02T02:16:22.949Z,101000.09
2023-01-02T02:19:29.116Z,100986.72
2023-01-02T02:22:30.596Z,100981.50
2023-01-02T02:25:45.243Z,100969.31
2023-01-02T02:28:59.042Z,100960.84
2023-01-02T02:31:43.263Z,100956.63
2023-01-02T02:34:23.871Z,100945.16
2023-01-02T02:37:02.953Z,100938.59
2023-01-02T02:39:47.785Z,100937.56
2023-01-02T02:42:32.647Z,100938.06
2023-01-02T02:45:10.240Z,100946.00
2023-01-02T02:47:50.491Z,100943.97
2023-01-02T02:50:33.499Z,100959.47
2023-01-02T02:53:10.491Z,100949.84
2023-01-02T02:55:47.683Z,100947.13
2023-01-02T02:58:19.746Z,100934.78
2023-01-02T03:00:48.003Z,100928.16
2023-01-02T03:03:21.521Z,100919.91
2023-01-02T03:06:09.543Z,100915.88
2023-01-02T03:08:48.298Z,100916.19
2023-01-02T03:11:17.296Z,100904.16
2023-01-02T03:14:01.464Z,100899.13
2023-01-02T03:16:40.160Z,100898.63
2023-01-02T03:19:16.015Z,100899.97
2023-01-02T03:21:53.729Z,100897.63
2023-01-02T03:24:26.320Z,100903.72
2023-01-02T03:27:03.502Z,100908.44
2023-01-02T03:29:38.488Z,100906.00
2023-01-02T03:32:13.925Z,100913.66
2023-01-02T03:34:48.418Z,100906.41
2023-01-02T03:37:24.485Z,100912.13
2023-01-02T03:39:58.494Z,100905.88
2023-01-02T03:42:31.907Z,100904.63
2023-01-02T03:45:10.280Z,100901.94
2023-01-02T03:47:47.163Z,100906.91
2023-01-02T03:50:23.429Z,100899.53
2023-01-02T03:52:51.725Z,100897.00
2023-01-02T03:55:20.920Z,100902.41
2023-01-02T03:58:02.944Z,100895.22
2023-01-02T04:00:42.729Z,100889.56
2023-01-02T04:03:16.506Z,100881.69
2023-01-02T04:05:53.613Z,100894.84
2023-01-02T04:08:29.993Z,100885.38
2023-01-02T04:11:03.420Z,100882.41
2023-01-02T04:13:39.231Z,100877.91
2023-01-02T04:16:12.014Z,100881.16
2023-01-02T04:18:47.868Z,100889.38
2023-01-02T04:21:24.886Z,100878.69
2023-01-02T04:24:00.917Z,100891.88
2023-01-02T04:26:34.531Z,100888.56
2023-01-02T04:29:03.897Z,100883.34
2023-01-02T04:31:43.336Z,100875.03
2023-01-02T04:34:16.173Z,100871.06
2023-01-02T04:36:46.030Z,100874.81
2023-01-02T04:39:14.358Z,100876.41
2023-01-02T04:41:44.417Z,100866.22
2023-01-02T04:44:12.539Z,100875.31
2023-01-02T04:46:40.670Z,100868.56
2023-01-02T04:49:08.952Z,100867.84
2023-01-02T04:51:37.409Z,100870.09
2023-01-02T04:54:07.136Z,100866.81
2023-01-02T04:56:35.178Z,100870.56
2023-01-02T04:59:03.198Z,100865.63
2023-01-02T05:01:31.392Z,100865.72
2023-01-02T05:03:59.466Z,100866.28
2023-01-02T05:06:27.499Z,100867.34
2023-01-02T05:08:55.468Z,100867.34
2023-01-02T05:11:24.800Z,100864.91
2023-01-02T05:13:54.958Z,100865.47
2023-01-02T05:16:22.968Z,100864.81
2023-01-02T05:18:50.956Z,100867.16
2023-01-02T05:21:48.075Z,100871.25
2023-01-02T05:24:16.165Z,100864.91
2023-01-02T05:26:45.491Z,100862.84
2023-01-02T05:29:13.441Z,100860.72
2023-01-02T05:31:41.363Z,100859.41
2023-01-02T05:34:16.073Z,100861.19
2023-01-02T05:36:44.674Z,100855.19
2023-01-02T05:39:14.718Z,100853.41
2023-01-02T05:41:43.245Z,100854.00
2023-01-02T05:44:12.770Z,100857.72
2023-01-02T05:46:41.453Z,100846.59
2023-01-02T05:49:12.025Z,100849.13
2023-01-02T05:51:40.115Z,100850.91
2023-01-02T05:54:09.068Z,100848.75
2023-01-02T05:56:37.150Z,100853.53
2023-01-02T05:59:09.234Z,100855.38
2023-01-02T06:01:39.721Z,100852.19
2023-01-02T06:04:07.912Z,100854.09
2023-01-02T06:06:38.850Z,100846.59
2023-01-02T06:09:09.373Z,100858.66
2023-01-02T06:11:37.992Z,100861.75
2023-01-02T06:14:06.177Z,100859.03
2023-01-02T06:16:34.258Z,100854.84
2023-01-02T06:19:04.081Z,100853.59
2023-01-02T06:21:31.955Z,100855.00
2023-01-02T06:24:01.022Z,100849.97
2023-01-02T06:26:34.939Z,100851.19
2023-01-02T06:29:04.921Z,100850.63
2023-01-02T06:31:33.613Z,100847.25
2023-01-02T06:34:04.994Z,100843.06
2023-01-02T06:36:35.292Z,100837.91
2023-01-02T06:39:03.978Z,100845.97
2023-01-02T06:41:32.150Z,100843.53
2023-01-02T06:44:00.175Z,100846.97
2023-01-02T06:46:28.109Z,100854.00
2023-01-02T06:48:56.353Z,100857.16
2023-01-02T06:51:25.957Z,100868.84
2023-01-02T06:53:54.087Z,100859.69
2023-01-02T06:56:23.447Z,100856.13
2023-01-02T06:58:51.646Z,100862.38
2023-01-02T07:01:23.014Z,100853.88
2023-01-02T07:03:51.408Z,100864.53
2023-01-02T07:06:22.247Z,100857.81
2023-01-02T07:08:51.819Z,100861.72
2023-01-02T07:11:22.957Z,100865.44
2023-01-02T07:13:54.398Z,100870.41
2023-01-02T07:16:24.608Z,100870.41
2023-01-02T07:18:54.242Z,100877.72
2023-01-02T07:21:22.895Z,100883.31
2023-01-02T07:23:52.266Z,100881.25
2023-01-02T07:26:20.585Z,100880.78
2023-01-02T07:28:48.799Z,100885.66
2023-01-02T07:31:19.726Z,100884.63
2023-01-02T07:33:47.926Z,100881.63
2023-01-02T07:36:19.083Z,100877.16
2023-01-02T07:38:53.717Z,100882.19
2023-01-02T07:41:26.081Z,100886.28
2023-01-02T07:43:56.445Z,100875.81
2023-01-02T07:46:25.194Z,100878.53
2023-01-02T07:48:53.452Z,100883.03
2023-01-02T07:51:26.958Z,100884.53
2023-01-02T07:53:57.019Z,100890.34
2023-01-02T07:56:25.511Z,100884.16
2023-01-02T07:58:53.995Z,100891.06
2023-01-02T08:01:22.168Z,100894.56
2023-01-02T08:03:50.349Z,100896.78
2023-01-02T08:06:19.767Z,100896.88
2023-01-02T08:08:48.278Z,100901.06
2023-01-02T08:11:21.303Z,100892.66
2023-01-02T08:13:49.862Z,100891.09
2023-01-02T08:16:21.192Z,100888.75
2023-01-02T08:18:51.388Z,100882.47
2023-01-02T08:21:19.928Z,100890.63
2023-01-02T08:23:47.889Z,100889.50
2023-01-02T08:26:17.333Z,100893.47
2023-01-02T08:28:45.811Z,100897.31
2023-01-02T08:31:17.413Z,100896.38
2023-01-02T08:33:46.252Z,100895.81
2023-01-02T08:36:15.250Z,100901.03
2023-01-02T08:38:43.649Z,100894.84
2023-01-02T08:41:11.717Z,100899.50
2023-01-02T08:43:41.202Z,100903.25
2023-01-02T08:46:11.082Z,100901.00
2023-01-02T08:48:39.059Z,100896.31
2023-01-02T08:51:07.305Z,100900.28
2023-01-02T08:53:35.323Z,100898.75
2023-01-02T08:56:25.224Z,100909.59
2023-01-02T08:58:59.022Z,100911.16
2023-01-02T09:01:29.791Z,100908.44
2023-01-02T09:03:58.818Z,100909.34
2023-01-02T09:06:30.021Z,100912.72
2023-01-02T09:09:03.223Z,100912.31
2023-01-02T09:11:38.703Z,100911.50
2023-01-02T09:14:08.153Z,100912.78
2023-01-02T09:16:36.416Z,100910.25
2023-01-02T09:19:05.132Z,100914.28
2023-01-02T09:21:33.204Z,100910.91
2023-01-02T09:24:01.481Z,100916.59
2023-01-02T09:26:29.543Z,100923.41
2023-01-02T09:28:57.541Z,100926.03
2023-01-02T09:31:27.110Z,100924.34
2023-01-02T09:33:55.600Z,100923.78
2023-01-02T09:36:24.312Z,100924.59
2023-01-02T09:38:53.700Z,100917.81
2023-01-02T09:41:41.720Z,100911.94
2023-01-02T09:44:18.085Z,100910.97
2023-01-02T09:46:54.090Z,100903.84
2023-01-02T09:49:26.847Z,100903.91
2023-01-02T09:51:55.430Z,100898.47
2023-01-02T09:54:28.022Z,100893.84
2023-01-02T09:57:33.885Z,100893.44
2023-01-02T10:00:09.669Z,100888.81
2023-01-02T10:03:01.493Z,100889.28
2023-01-02T10:06:03.052Z,100889.72
2023-01-02T10:08:46.412Z,100878.59
2023-01-02T10:11:33.149Z,100880.28
2023-01-02T10:14:18.903Z,100872.97
2023-01-02T10:16:54.239Z,100880.16
2023-01-02T10:19:33.320Z,100866.94
2023-01-02T10:22:04.219Z,100862.13
2023-01-02T10:24:43.171Z,100868.56
2023-01-02T10:27:19.356Z,100862.56
2023-01-02T10:29:54.835Z,100855.44
2023-01-02T10:32:26.229Z,100860.47
2023-01-02T10:35:15.727Z,100852.06
2023-01-02T10:37:43.800Z,100852.06
2023-01-02T10:40:13.721Z,100849.31
2023-01-02T10:42:42.943Z,100850.16
2023-01-02T10:45:17.488Z,100851.00
2023-01-02T10:47:46.378Z,100851.63
2023-01-02T10:50:22.515Z,100850.84
2023-01-02T10:52:54.253Z,100853.78
2023-01-02T10:55:34.961Z,100845.88
2023-01-02T10:58:06.571Z,100849.28
2023-01-02T11:00:37.863Z,100846.28
2023-01-02T11:03:17.649Z,100844.19
2023-01-02T11:05:49.744Z,100846.56
2023-01-02T11:08:21.753Z,100843.00
2023-01-02T11:10:50.700Z,100838.13
2023-01-02T11:13:22.092Z,100839.94
2023-01-02T11:15:57.075Z,100843.63
2023-01-02T11:18:28.272Z,100837.75
2023-01-02T11:21:04.328Z,100850.41
2023-01-02T11:23:39.068Z,100838.28
2023-01-02T11:26:20.712Z,100850.16
2023-01-02T11:28:52.677Z,100835.91
2023-01-02T11:31:22.840Z,100843.84
2023-01-02T11:33:50.893Z,100854.69
2023-01-02T11:36:21.214Z,100856.19
2023-01-02T11:38:53.878Z,100845.78
2023-01-02T11:41:44.673Z,100853.13
2023-01-02T11:44:21.025Z,100861.66
2023-01-02T11:46:50.681Z,100854.22
2023-01-02T11:49:24.531Z,100846.69
2023-01-02T11:51:58.992Z,100848.81
2023-01-02T11:54:41.556Z,100861.00
2023-01-02T11:57:19.102Z,100866.75
2023-01-02T11:59:51.339Z,100863.38
2023-01-02T12:02:31.047Z,100850.75
2023-01-02T12:04:59.023Z,100850.56
2023-01-02T12:07:45.763Z,100845.31
2023-01-02T12:10:39.449Z,100842.22
2023-01-02T12:13:33.544Z,100836.47
2023-01-02T12:16:26.020Z,100845.44
2023-01-02T12:19:29.336Z,100848.75
2023-01-02T12:22:17.770Z,100851.94
2023-01-02T12:25:22.426Z,100850.69
2023-01-02T12:28:03.509Z,100860.31
2023-01-02T12:30:39.417Z,100869.53
2023-01-02T12:33:37.475Z,100869.38
2023-01-02T12:36:46.995Z,100854.50
2023-01-02T12:39:49.992Z,100847.69
2023-01-02T12:42:39.992Z,100855.34
2023-01-02T12:45:25.846Z,100859.94
2023-01-02T12:48:17.213Z,100864.03
2023-01-02T12:51:14.143Z,100870.19
2023-01-02T12:54:18.827Z,100863.53
2023-01-02T12:57:01.990Z,100865.28
2023-01-02T13:00:17.813Z,100869.72
2023-01-02T13:03:24.257Z,100871.88
2023-01-02T13:05:58.412Z,100869.53
2023-01-02T13:08:33.407Z,100878.22
2023-01-02T13:11:06.925Z,100870.53
2023-01-02T13:13:38.390Z,100876.41
2023-01-02T13:16:24.859Z,100881.75
2023-01-02T13:19:14.970Z,100877.69
2023-01-02T13:21:52.752Z,100881.06
2023-01-02T13:24:26.983Z,100871.88
2023-01-02T13:26:59.261Z,100873.56
2023-01-02T13:29:42.272Z,100875.63
2023-01-02T13:32:14.583Z,100872.06
2023-01-02T13:34:52.519Z,100873.97
2023-01-02T13:37:25.953Z,100885.19
2023-01-02T13:39:58.983Z,100887.44
2023-01-02T13:42:49.878Z,100896.03
2023-01-02T13:45:24.508Z,100893.22
2023-01-02T13:47:58.303Z,100900.50
2023-01-02T13:50:30.975Z,100901.72
2023-01-02T13:53:08.772Z,100899.59
2023-01-02T13:55:58.453Z,100903.03
2023-01-02T13:58:43.391Z,100901.09
2023-01-02T14:02:07.596Z,100894.44
2023-01-02T14:04:42.113Z,100898.00
2023-01-02T14:07:44.342Z,100898.94
2023-01-02T14:10:40.267Z,100911.50
2023-01-02T14:13:23.570Z,100914.56
2023-01-02T14:16:38.582Z,100921.44
2023-01-02T14:19:19.127Z,100911.34
2023-01-02T14:21:54.815Z,100922.19
2023-01-02T14:24:32.070Z,100925.09
2023-01-02T14:27:03.806Z,100934.34
2023-01-02T14:29:40.810Z,100932.38
2023-01-02T14:32:21.707Z,100928.78
2023-01-02T14:34:55.498Z,100946.66
2023-01-02T14:37:39.004Z,100939.06
2023-01-02T14:40:37.301Z,100953.41
2023-01-02T14:43:30.537Z,100953.59
2023-01-02T14:46:08.212Z,100953.59
2023-01-02T14:48:49.735Z,100958.16
2023-01-02T14:51:24.278Z,100972.78
2023-01-02T14:53:59.089Z,100966.50
2023-01-02T14:56:34.973Z,100973.88
2023-01-02T14:59:04.570Z,100976.50
2023-01-02T15:01:42.807Z,100982.94
2023-01-02T15:04:24.196Z,100977.44
2023-01-02T15:07:09.903Z,100978.75
2023-01-02T15:09:46.018Z,100984.56
2023-01-02T15:12:42.143Z,100993.34
2023-01-02T15:15:13.317Z,100997.06
2023-01-02T15:17:42.453Z,101021.66
2023-01-02T15:20:21.365Z,101004.84
2023-01-02T15:22:49.959Z,101027.06
2023-01-02T15:25:36.951Z,101027.28
2023-01-02T15:28:06.469Z,101034.56
2023-01-02T15:30:39.480Z,101053.16
2023-01-02T15:33:25.687Z,101051.56
2023-01-02T15:36:00.251Z,101050.69
2023-01-02T15:38:28.586Z,101043.44
2023-01-02T15:40:58.724Z,101057.13
2023-01-02T15:43:50.239Z,101061.75
2023-01-02T15:46:18.787Z,101074.97
2023-01-02T15:48:47.536Z,101076.91
2023-01-02T15:51:19.099Z,101085.06
2023-01-02T15:53:50.095Z,101089.28
2023-01-02T15:56:34.452Z,101088.31
2023-01-02T15:59:03.894Z,101094.66
2023-01-02T16:01:32.046Z,101101.78
2023-01-02T16:04:06.409Z,101106.97
2023-01-02T16:06:40.182Z,101108.47
2023-01-02T16:09:20.100Z,101108.81
2023-01-02T16:11:54.301Z,101104.00
2023-01-02T16:14:36.330Z,101129.56
2023-01-02T16:17:12.149Z,101128.25
2023-01-02T16:19:58.564Z,101127.25
2023-01-02T16:22:33.529Z,101133.91
2023-01-02T16:25:14.281Z,101133.28
2023-01-02T16:27:54.112Z,101128.22
2023-01-02T16:30:32.654Z,101135.47
2023-01-02T16:33:03.614Z,101151.72
2023-01-02T16:35:34.894Z,101148.34
2023-01-02T16:38:06.047Z,101163.59
2023-01-02T16:41:02.975Z,101161.91
2023-01-02T16:43:41.318Z,101164.13
2023-01-02T16:46:16.049Z,101178.47
2023-01-02T16:48:45.454Z,101180.19
2023-01-02T16:51:16.433Z,101182.41
2023-01-02T16:53:45.974Z,101187.09
2023-01-02T16:56:15.508Z,101184.41
2023-01-02T16:58:44.858Z,101186.78
2023-01-02T17:01:15.023Z,101185.25
2023-01-02T17:03:44.516Z,101179.69
2023-01-02T17:06:15.789Z,101198.09
2023-01-02T17:08:44.473Z,101200.47
2023-01-02T17:11:17.480Z,101201.28
2023-01-02T17:13:47.132Z,101206.34
2023-01-02T17:16:15.414Z,101204.31
2023-01-02T17:18:43.472Z,101216.50
2023-01-02T17:21:12.056Z,101210.25
2023-01-02T17:23:40.300Z,101204.81
2023-01-02T17:26:08.360Z,101209.50
2023-01-02T17:28:36.751Z,101216.19
2023-01-02T17:31:06.571Z,101216.72
2023-01-02T17:33:34.526Z,101221.09
2023-01-02T17:36:02.576Z,101225.50
2023-01-02T17:38:30.585Z,101220.63
2023-01-02T17:40:59.207Z,101223.28
2023-01-02T17:43:27.429Z,101221.38
2023-01-02T17:45:55.475Z,101226.16
2023-01-02T17:48:25.598Z,101223.06
2023-01-02T17:50:54.157Z,101231.00
2023-01-02T17:53:22.869Z,101241.59
2023-01-02T17:56:20.700Z,101247.84
2023-01-02T17:58:43.240Z,101260.50
2023-01-02T18:01:19.874Z,101267.78
2023-01-02T18:03:50.028Z,101267.31
2023-01-02T18:06:21.317Z,101278.13
2023-01-02T18:08:50.398Z,101271.63
2023-01-02T18:11:18.806Z,101276.06
2023-01-02T18:13:52.201Z,101289.25
2023-01-02T18:16:30.760Z,101283.53
2023-01-02T18:19:04.093Z,101283.13
2023-01-02T18:21:35.251Z,101269.63
2023-01-02T18:24:12.454Z,101266.75
2023-01-02T18:26:40.613Z,101270.28
2023-01-02T18:29:19.534Z,101257.09
2023-01-02T18:31:47.703Z,101270.59
2023-01-02T18:37:20.935Z,101296.28
2023-01-02T18:39:49.820Z,101305.59
2023-01-02T18:42:21.898Z,101312.69
2023-01-02T18:44:52.727Z,101300.53
2023-01-02T18:47:28.382Z,101310.81
2023-01-02T18:50:03.209Z,101311.25
2023-01-02T18:52:34.647Z,101305.84
2023-01-02T18:55:24.846Z,101313.94
2023-01-02T18:58:01.319Z,101310.88
2023-01-02T19:00:33.155Z,101314.13
2023-01-02T19:03:04.680Z,101313.25
2023-01-02T19:05:39.575Z,101318.44
2023-01-02T19:08:20.751Z,101324.66
2023-01-02T19:10:53.173Z,101319.94
2023-01-02T19:13:24.751Z,101331.50
2023-01-02T19:15:57.467Z,101345.53
2023-01-02T19:18:38.353Z,101335.06
2023-01-02T19:21:30.317Z,101345.00
2023-01-02T19:24:01.015Z,101349.22
2023-01-02T19:26:36.482Z,101352.91
2023-01-02T19:29:17.244Z,101355.28
2023-01-02T19:31:52.684Z,101358.63
2023-01-02T19:34:34.598Z,101357.25
2023-01-02T19:37:25.356Z,101370.81
2023-01-02T19:39:55.711Z,101379.81
2023-01-02T19:42:26.743Z,101370.50
2023-01-02T19:44:57.829Z,101374.91
2023-01-02T19:47:29.025Z,101374.81
2023-01-02T19:49:57.619Z,101384.16
2023-01-02T19:52:29.173Z,101388.13
2023-01-02T19:54:57.923Z,101391.84
2023-01-02T19:57:26.195Z,101392.81
2023-01-02T19:59:56.703Z,101389.16
2023-01-02T20:02:26.046Z,101391.34
2023-01-02T20:04:57.960Z,101390.94
2023-01-02T20:07:27.956Z,101398.56
2023-01-02T20:09:55.951Z,101401.72
2023-01-02T20:12:35.573Z,101400.28
2023-01-02T20:15:07.665Z,101422.88
2023-01-02T20:17:37.912Z,101425.56
2023-01-02T20:20:07.997Z,101424.97
2023-01-02T20:22:37.531Z,101423.88
2023-01-02T20:25:06.997Z,101414.09
2023-01-02T20:27:35.084Z,101417.09
2023-01-02T20:30:03.447Z,101417.09
2023-01-02T20:32:31.490Z,101419.38
2023-01-02T20:35:00.093Z,101423.38
2023-01-02T20:37:28.255Z,101426.19
2023-01-02T20:39:57.931Z,101432.84
2023-01-02T20:42:25.826Z,101435.16
2023-01-02T20:44:54.042Z,101429.69
2023-01-02T20:47:22.058Z,101441.22
2023-01-02T20:49:50.213Z,101445.31
2023-01-02T20:52:19.151Z,101461.06
2023-01-02T20:54:47.212Z,101475.53
2023-01-02T20:57:16.562Z,101473.00
2023-01-02T20:59:44.723Z,101488.84
2023-01-02T21:02:13.048Z,101500.03
2023-01-02T21:04:41.195Z,101508.84
2023-01-02T21:07:09.279Z,101508.97
2023-01-02T21:09:37.327Z,101497.63
2023-01-02T21:12:25.403Z,101501.16
2023-01-02T21:15:04.035Z,101504.19
2023-01-02T21:17:32.037Z,101520.59
2023-01-02T21:20:00.113Z,101517.91
2023-01-02T21:22:28.075Z,101511.97
2023-01-02T21:24:56.133Z,101526.72
2023-01-02T21:27:24.220Z,101523.91
2023-01-02T21:29:52.233Z,101532.53
2023-01-02T21:32:21.598Z,101529.28
2023-01-02T21:34:49.594Z,101534.81
2023-01-02T21:37:17.525Z,101535.84
2023-01-02T21:39:48.049Z,101541.47
2023-01-02T21:42:18.716Z,101543.91
2023-01-02T21:44:48.490Z,101541.50
2023-01-02T21:47:17.344Z,101545.31
2023-01-02T21:49:46.768Z,101561.47
2023-01-02T21:52:15.353Z,101547.59
2023-01-02T21:54:43.457Z,101552.97
2023-01-02T21:57:11.976Z,101551.81
2023-01-02T21:59:40.014Z,101557.22
2023-01-02T22:02:08.907Z,101566.69
2023-01-02T22:04:37.379Z,101575.91
2023-01-02T22:07:31.778Z,101589.94
2023-01-02T22:09:54.817Z,101594.31
2023-01-02T22:12:22.765Z,101586.25
2023-01-02T22:14:51.070Z,101590.91
2023-01-02T22:17:19.121Z,101593.03
2023-01-02T22:19:47.137Z,101589.50
2023-01-02T22:22:16.651Z,101590.34
2023-01-02T22:24:45.924Z,101597.97
2023-01-02T22:27:17.264Z,101591.75
2023-01-02T22:32:35.940Z,101603.06
2023-01-02T22:35:08.064Z,101608.44
2023-01-02T22:37:37.530Z,101607.47
2023-01-02T22:40:06.673Z,101610.97
2023-01-02T22:43:04.467Z,101610.31
2023-01-02T22:45:40.640Z,101617.50
2023-01-02T22:48:20.403Z,101623.56
2023-01-02T22:50:50.350Z,101623.00
2023-01-02T22:53:27.603Z,101630.38
2023-01-02T22:55:56.162Z,101626.25
2023-01-02T22:58:25.782Z,101631.78
2023-01-02T23:01:01.548Z,101623.28
2023-01-02T23:03:32.560Z,101629.38
2023-01-02T23:06:00.640Z,101635.84
2023-01-02T23:08:30.105Z,101640.41
2023-01-02T23:10:59.422Z,101646.50
2023-01-02T23:13:27.498Z,101638.31
2023-01-02T23:16:13.151Z,101643.25
2023-01-02T23:18:59.450Z,101654.56
2023-01-02T23:21:29.420Z,101652.84
2023-01-02T23:23:59.101Z,101648.63
2023-01-02T23:26:29.796Z,101650.03
2023-01-02T23:29:07.606Z,101647.91
2023-01-02T23:31:38.007Z,101654.16
2023-01-02T23:34:06.136Z,101656.84
2023-01-02T23:36:34.605Z,101661.56
2023-01-02T23:39:05.144Z,101661.13
2023-01-02T23:41:34.452Z,101669.25
2023-01-02T23:44:02.704Z,101664.31
2023-01-02T23:46:30.706Z,101671.34
2023-01-02T23:48:59.608Z,101677.69
2023-01-02T23:51:28.358Z,101676.00
2023-01-02T23:53:56.376Z,101684.47
2023-01-02T23:56:30.497Z,101680.63
2023-01-02T23:59:01.812Z,101689.81
